createdAt,value
2023-04-08T00:02:59.032Z,100522.97
2023-04-08T00:08:00.853Z,100521.53
2023-04-08T00:13:02.644Z,100532.19
2023-04-08T00:18:04.324Z,100523.72
2023-04-08T00:23:06.300Z,100519.09
2023-04-08T00:28:07.980Z,100512.22
2023-04-08T00:33:10.070Z,100522.22
2023-04-08T00:38:13.577Z,100528.03
2023-04-08T00:43:16.623Z,100525.38
2023-04-08T00:48:18.281Z,100521.06
2023-04-08T00:53:20.250Z,100519.94
2023-04-08T00:58:21.902Z,100525.41
2023-04-08T01:03:27.514Z,100517.66
2023-04-08T01:08:31.375Z,100514.38
2023-04-08T01:13:35.938Z,100513.16
2023-04-08T01:18:38.819Z,100512.53
2023-04-08T01:23:53.018Z,100518.38
2023-04-08T01:28:57.853Z,100508.97
2023-04-08T01:34:01.268Z,100511.84
2023-04-08T01:39:03.449Z,100507.00
2023-04-08T01:44:05.458Z,100498.03
2023-04-08T01:49:07.487Z,100509.06
2023-04-08T01:54:10.607Z,100504.59
2023-04-08T01:59:14.538Z,100506.50
2023-04-08T02:04:16.637Z,100501.56
2023-04-08T02:09:20.244Z,100519.09
2023-04-08T02:14:22.970Z,100524.66
2023-04-08T02:19:36.514Z,100522.50
2023-04-08T02:24:39.016Z,100519.22
2023-04-08T02:29:41.490Z,100508.44
2023-04-08T02:34:43.729Z,100524.66
2023-04-08T02:39:45.539Z,100511.56
2023-04-08T02:44:47.949Z,100524.66
2023-04-08T02:49:53.232Z,100531.91
2023-04-08T02:54:54.866Z,100532.41
2023-04-08T02:59:57.090Z,100539.41
2023-04-08T03:04:58.996Z,100546.66
2023-04-08T03:10:00.816Z,100527.53
2023-04-08T03:15:03.527Z,100536.38
2023-04-08T03:20:06.218Z,100533.81
2023-04-08T03:25:08.336Z,100534.56
2023-04-08T03:30:10.357Z,100525.94
2023-04-08T03:35:12.141Z,100530.19
2023-04-08T03:40:13.779Z,100526.78
2023-04-08T03:45:15.425Z,100534.69
2023-04-08T03:50:17.106Z,100520.78
2023-04-08T03:55:18.712Z,100524.66
2023-04-08T04:00:20.332Z,100531.09
2023-04-08T04:05:22.283Z,100528.41
2023-04-08T04:10:24.196Z,100534.34
2023-04-08T04:15:25.907Z,100546.44
2023-04-08T04:20:29.189Z,100546.44
2023-04-08T04:25:30.870Z,100541.97
2023-04-08T04:30:32.536Z,100546.69
2023-04-08T04:35:34.226Z,100553.72
2023-04-08T04:40:36.224Z,100549.09
2023-04-08T04:45:37.833Z,100562.50
2023-04-08T04:50:39.473Z,100574.75
2023-04-08T04:55:41.281Z,100576.72
2023-04-08T05:00:42.880Z,100577.16
2023-04-08T05:05:44.501Z,100579.56
2023-04-08T05:10:46.423Z,100574.22
2023-04-08T05:15:48.341Z,100576.66
2023-04-08T05:20:49.956Z,100580.28
2023-04-08T05:25:51.557Z,100578.59
2023-04-08T05:30:53.458Z,100591.34
2023-04-08T05:35:55.111Z,100596.53
2023-04-08T05:40:56.766Z,100594.84
2023-04-08T05:45:58.346Z,100599.44
2023-04-08T05:51:00.269Z,100594.47
2023-04-08T05:56:01.886Z,100605.38
2023-04-08T06:01:03.859Z,100601.38
2023-04-08T06:06:11.618Z,100617.97
2023-04-08T06:11:13.258Z,100623.38
2023-04-08T06:16:19.584Z,100612.25
2023-04-08T06:21:22.560Z,100626.81
2023-04-08T06:26:24.139Z,100633.09
2023-04-08T06:31:26.060Z,100638.19
2023-04-08T06:36:28.380Z,100637.69
2023-04-08T06:41:30.760Z,100640.59
2023-04-08T06:46:38.452Z,100645.78
2023-04-08T06:51:40.433Z,100650.53
2023-04-08T06:56:42.008Z,100656.34
2023-04-08T07:01:43.693Z,100665.28
2023-04-08T07:06:45.852Z,100680.44
2023-04-08T07:11:47.476Z,100670.16
2023-04-08T07:16:49.165Z,100687.19
2023-04-08T07:21:51.004Z,100695.69
2023-04-08T07:26:52.918Z,100692.00
2023-04-08T07:31:54.504Z,100698.38
2023-04-08T07:36:56.248Z,100705.38
2023-04-08T07:41:57.887Z,100711.94
2023-04-08T07:46:59.477Z,100715.16
2023-04-08T07:52:01.256Z,100718.66
2023-04-08T07:57:02.942Z,100735.00
2023-04-08T08:02:04.701Z,100743.75
2023-04-08T08:07:06.296Z,100740.47
2023-04-08T08:12:07.905Z,100749.31
2023-04-08T08:17:09.551Z,100749.03
2023-04-08T08:22:12.042Z,100739.81
2023-04-08T08:27:13.640Z,100747.28
2023-04-08T08:32:15.246Z,100763.44
2023-04-08T08:37:16.892Z,100754.88
2023-04-08T08:42:23.175Z,100781.50
2023-04-08T08:47:25.068Z,100778.16
2023-04-08T08:52:26.675Z,100778.28
2023-04-08T08:57:28.345Z,100785.44
2023-04-08T09:02:32.134Z,100789.72
2023-04-08T09:07:40.547Z,100796.38
2023-04-08T09:12:56.248Z,100797.13
2023-04-08T09:17:59.052Z,100798.44
2023-04-08T09:23:01.817Z,100807.59
2023-04-08T09:28:03.551Z,100810.00
2023-04-08T09:33:07.394Z,100812.78
2023-04-08T09:38:09.159Z,100821.03
2023-04-08T09:43:12.781Z,100820.16
2023-04-08T09:48:18.553Z,100826.91
2023-04-08T09:53:26.651Z,100834.81
2023-04-08T09:58:29.578Z,100827.84
2023-04-08T10:03:37.614Z,100830.47
2023-04-08T10:08:39.375Z,100829.44
2023-04-08T10:13:41.426Z,100823.38
2023-04-08T10:18:44.223Z,100838.31
2023-04-08T10:23:58.947Z,100849.56
2023-04-08T10:29:18.791Z,100853.56
2023-04-08T10:34:22.722Z,100847.47
2023-04-08T10:39:25.436Z,100848.41
2023-04-08T10:44:27.150Z,100848.28
2023-04-08T10:49:33.863Z,100842.22
2023-04-08T10:54:36.730Z,100842.50
2023-04-08T10:59:39.858Z,100849.72
2023-04-08T11:04:42.853Z,100853.28
2023-04-08T11:09:44.868Z,100853.44
2023-04-08T11:14:47.800Z,100853.50
2023-04-08T11:19:50.461Z,100859.13
2023-04-08T11:24:52.225Z,100868.84
2023-04-08T11:29:56.167Z,100866.44
2023-04-08T11:35:01.217Z,100872.41
2023-04-08T11:40:02.862Z,100867.00
2023-04-08T11:45:12.345Z,100866.47
2023-04-08T11:50:23.069Z,100869.47
2023-04-08T11:55:27.045Z,100879.34
2023-04-08T12:00:28.725Z,100884.09
2023-04-08T12:05:30.461Z,100880.22
2023-04-08T12:10:32.106Z,100879.84
2023-04-08T12:15:33.714Z,100889.84
2023-04-08T12:20:35.416Z,100892.81
2023-04-08T12:25:37.010Z,100891.84
2023-04-08T12:30:38.588Z,100905.72
2023-04-08T12:35:40.285Z,100904.19
2023-04-08T12:40:41.947Z,100905.03
2023-04-08T12:45:43.553Z,100914.97
2023-04-08T12:50:45.409Z,100914.03
2023-04-08T12:55:49.116Z,100915.84
2023-04-08T13:00:51.334Z,100918.84
2023-04-08T13:05:52.961Z,100922.91
2023-04-08T13:10:55.196Z,100903.81
2023-04-08T13:15:56.795Z,100910.56
2023-04-08T13:20:58.591Z,100913.91
2023-04-08T13:26:00.462Z,100917.69
2023-04-08T13:31:02.120Z,100935.84
2023-04-08T13:36:03.972Z,100930.16
2023-04-08T13:41:05.656Z,100928.78
2023-04-08T13:46:08.091Z,100931.84
2023-04-08T13:51:10.341Z,100929.53
2023-04-08T13:56:11.935Z,100933.00
2023-04-08T14:01:13.548Z,100937.41
2023-04-08T14:06:15.242Z,100942.06
2023-04-08T14:11:16.812Z,100950.09
2023-04-08T14:16:18.540Z,100939.66
2023-04-08T14:21:20.289Z,100953.38
2023-04-08T14:26:22.043Z,100948.41
2023-04-08T14:31:23.679Z,100945.75
2023-04-08T14:36:26.209Z,100955.53
2023-04-08T14:41:27.807Z,100952.75
2023-04-08T14:46:29.573Z,100957.16
2023-04-08T14:51:31.824Z,100956.91
2023-04-08T14:56:33.531Z,100953.13
2023-04-08T15:01:35.820Z,100958.72
2023-04-08T15:06:39.023Z,100956.16
2023-04-08T15:11:40.645Z,100960.03
2023-04-08T15:16:42.311Z,100960.41
2023-04-08T15:21:43.953Z,100965.16
2023-04-08T15:26:45.582Z,100971.72
2023-04-08T15:31:47.153Z,100973.41
2023-04-08T15:36:48.748Z,100973.75
2023-04-08T15:41:50.365Z,100983.94
2023-04-08T15:46:52.063Z,100993.53
2023-04-08T15:51:53.650Z,100989.91
2023-04-08T15:56:55.238Z,100982.88
2023-04-08T16:01:57.126Z,100995.22
2023-04-08T16:06:58.784Z,100998.72
2023-04-08T16:12:00.374Z,101009.06
2023-04-08T16:17:01.986Z,101009.31
2023-04-08T16:22:03.679Z,101014.38
2023-04-08T16:27:05.519Z,101018.88
2023-04-08T16:32:07.313Z,101020.06
2023-04-08T16:37:09.072Z,101025.75
2023-04-08T16:42:10.988Z,101022.25
2023-04-08T16:47:12.577Z,101041.28
2023-04-08T16:52:14.164Z,101037.66
2023-04-08T16:57:16.574Z,101040.03
2023-04-08T17:02:18.513Z,101036.94
2023-04-08T17:07:20.219Z,101047.41
2023-04-08T17:12:21.930Z,101045.44
2023-04-08T17:17:23.561Z,101053.59
2023-04-08T17:22:26.133Z,101059.69
2023-04-08T17:27:27.736Z,101064.50
2023-04-08T17:32:29.385Z,101069.09
2023-04-08T17:37:31.015Z,101071.56
2023-04-08T17:42:32.629Z,101083.72
2023-04-08T17:47:34.256Z,101091.88
2023-04-08T17:52:36.085Z,101093.41
2023-04-08T17:57:38.948Z,101097.31
2023-04-08T18:02:41.808Z,101102.91
2023-04-08T18:07:43.649Z,101111.69
2023-04-08T18:12:45.839Z,101117.75
2023-04-08T18:17:47.720Z,101119.56
2023-04-08T18:22:49.394Z,101127.25
2023-04-08T18:27:50.994Z,101130.06
2023-04-08T18:32:52.761Z,101145.84
2023-04-08T18:37:54.452Z,101154.63
2023-04-08T18:42:56.244Z,101151.03
2023-04-08T18:47:57.908Z,101156.09
2023-04-08T18:52:59.561Z,101156.34
2023-04-08T18:58:01.143Z,101171.47
2023-04-08T19:03:03.529Z,101176.38
2023-04-08T19:08:05.765Z,101178.53
2023-04-08T19:13:07.380Z,101174.06
2023-04-08T19:18:09.820Z,101167.97
2023-04-08T19:23:11.496Z,101165.50
2023-04-08T19:28:14.334Z,101173.50
2023-04-08T19:33:15.900Z,101169.03
2023-04-08T19:38:17.490Z,101174.56
2023-04-08T19:43:19.158Z,101157.72
2023-04-08T19:48:21.312Z,101159.44
2023-04-08T19:53:23.012Z,101165.94
2023-04-08T19:58:24.597Z,101170.72
2023-04-08T20:03:26.458Z,101180.22
2023-04-08T20:08:28.375Z,101185.63
2023-04-08T20:13:29.972Z,101183.28
2023-04-08T20:18:32.763Z,101179.91
2023-04-08T20:23:34.346Z,101181.91
2023-04-08T20:28:36.679Z,101185.00
2023-04-08T20:33:43.524Z,101174.25
2023-04-08T20:38:45.346Z,101178.06
2023-04-08T20:43:46.946Z,101178.19
2023-04-08T20:48:48.590Z,101172.75
2023-04-08T20:53:50.637Z,101182.63
2023-04-08T20:58:52.483Z,101179.44
2023-04-08T21:03:54.718Z,101179.25
2023-04-08T21:08:56.484Z,101177.13
2023-04-08T21:13:58.088Z,101187.72
2023-04-08T21:19:01.827Z,101194.94
2023-04-08T21:24:04.565Z,101203.41
2023-04-08T21:29:06.315Z,101207.81
2023-04-08T21:34:08.005Z,101194.84
2023-04-08T21:39:09.644Z,101206.28
2023-04-08T21:44:11.230Z,101213.31
2023-04-08T21:49:13.764Z,101211.66
2023-04-08T21:54:15.520Z,101210.16
2023-04-08T21:59:17.179Z,101206.00
2023-04-08T22:04:19.740Z,101214.88
2023-04-08T22:09:21.678Z,101205.41
2023-04-08T22:14:23.577Z,101192.50
2023-04-08T22:19:25.363Z,101185.69
2023-04-08T22:24:27.677Z,101196.91
2023-04-08T22:29:29.701Z,101196.91
2023-04-08T22:34:31.319Z,101190.16
2023-04-08T22:39:32.925Z,101186.44
2023-04-08T22:44:34.557Z,101172.63
2023-04-08T22:49:36.396Z,101174.53
2023-04-08T22:54:37.969Z,101173.97
2023-04-08T22:59:39.743Z,101184.38
2023-04-08T23:04:41.315Z,101189.97
2023-04-08T23:09:42.946Z,101187.78
2023-04-08T23:14:44.522Z,101189.59
2023-04-08T23:19:46.165Z,101201.94
2023-04-08T23:24:48.336Z,101196.31
2023-04-08T23:29:49.928Z,101195.91
2023-04-08T23:34:51.494Z,101199.47
2023-04-08T23:39:54.466Z,101205.06
2023-04-08T23:44:56.072Z,101209.38
2023-04-08T23:49:57.725Z,101201.03
2023-04-08T23:54:59.342Z,101196.53
